createdAt,value
2023-07-30T00:01:34.090Z,96587.19
2023-07-30T00:04:01.363Z,96597.97
2023-07-30T00:06:28.251Z,96589.09
2023-07-30T00:08:54.913Z,96595.25
2023-07-30T00:11:21.618Z,96589.50
2023-07-30T00:13:48.358Z,96592.97
2023-07-30T00:16:15.207Z,96591.03
2023-07-30T00:18:41.870Z,96590.28
2023-07-30T00:21:08.583Z,96596.03
2023-07-30T00:23:35.385Z,96592.91
2023-07-30T00:26:03.040Z,96595.59
2023-07-30T00:28:30.051Z,96596.72
2023-07-30T00:30:56.738Z,96601.69
2023-07-30T00:33:23.447Z,96607.44
2023-07-30T00:35:53.058Z,96601.66
2023-07-30T00:38:20.326Z,96606.56
2023-07-30T00:40:47.006Z,96613.00
2023-07-30T00:43:13.722Z,96607.16
2023-07-30T00:45:43.978Z,96615.53
2023-07-30T00:48:14.687Z,96613.94
2023-07-30T00:50:41.753Z,96615.88
2023-07-30T00:53:15.209Z,96613.13
2023-07-30T00:55:41.989Z,96611.19
2023-07-30T00:58:09.972Z,96606.22
2023-07-30T01:00:36.749Z,96617.41
2023-07-30T01:03:04.307Z,96615.81
2023-07-30T01:05:31.109Z,96610.03
2023-07-30T01:07:57.781Z,96611.56
2023-07-30T01:10:25.843Z,96611.94
2023-07-30T01:12:53.185Z,96606.97
2023-07-30T01:15:20.318Z,96616.22
2023-07-30T01:17:47.082Z,96608.97
2023-07-30T01:20:13.859Z,96607.84
2023-07-30T01:22:40.519Z,96597.91
2023-07-30T01:25:07.648Z,96600.31
2023-07-30T01:27:39.938Z,96596.50
2023-07-30T01:30:19.354Z,96613.84
2023-07-30T01:32:50.087Z,96607.69
2023-07-30T01:35:17.553Z,96608.44
2023-07-30T01:37:45.897Z,96604.59
2023-07-30T01:40:14.124Z,96599.97
2023-07-30T01:42:40.752Z,96608.03
2023-07-30T01:45:07.926Z,96595.69
2023-07-30T01:47:35.294Z,96596.09
2023-07-30T01:50:02.159Z,96600.25
2023-07-30T01:52:29.509Z,96601.31
2023-07-30T01:54:57.762Z,96609.66
2023-07-30T01:57:24.578Z,96602.00
2023-07-30T01:59:51.405Z,96595.16
2023-07-30T02:02:18.097Z,96602.88
2023-07-30T02:04:44.823Z,96601.03
2023-07-30T02:07:11.528Z,96597.19
2023-07-30T02:09:38.218Z,96597.19
2023-07-30T02:12:05.141Z,96599.97
2023-07-30T02:14:31.960Z,96594.66
2023-07-30T02:16:58.777Z,96593.97
2023-07-30T02:19:25.397Z,96602.16
2023-07-30T02:21:52.008Z,96597.59
2023-07-30T02:24:18.791Z,96604.97
2023-07-30T02:26:45.486Z,96589.63
2023-07-30T02:29:12.091Z,96596.59
2023-07-30T02:31:39.026Z,96587.03
2023-07-30T02:34:05.846Z,96602.41
2023-07-30T02:36:32.733Z,96600.91
2023-07-30T02:38:59.573Z,96602.06
2023-07-30T02:41:26.341Z,96599.38
2023-07-30T02:43:53.191Z,96606.69
2023-07-30T02:46:19.960Z,96615.59
2023-07-30T02:48:46.746Z,96609.81
2023-07-30T02:51:13.553Z,96625.97
2023-07-30T02:53:40.429Z,96621.75
2023-07-30T02:56:07.102Z,96627.91
2023-07-30T02:58:33.834Z,96624.84
2023-07-30T03:01:10.785Z,96612.59
2023-07-30T03:03:37.734Z,96614.50
2023-07-30T03:06:04.501Z,96614.50
2023-07-30T03:08:31.186Z,96619.91
2023-07-30T03:11:01.090Z,96620.31
2023-07-30T03:13:27.824Z,96617.63
2023-07-30T03:15:54.653Z,96613.75
2023-07-30T03:18:21.338Z,96614.50
2023-07-30T03:20:48.351Z,96626.03
2023-07-30T03:23:15.047Z,96632.94
2023-07-30T03:25:41.759Z,96625.63
2023-07-30T03:28:08.502Z,96620.25
2023-07-30T03:30:35.907Z,96615.63
2023-07-30T03:33:02.755Z,96614.09
2023-07-30T03:35:29.470Z,96613.34
2023-07-30T03:37:56.434Z,96632.50
2023-07-30T03:40:23.187Z,96626.78
2023-07-30T03:42:50.608Z,96636.78
2023-07-30T03:45:17.343Z,96631.81
2023-07-30T03:47:44.283Z,96638.72
2023-07-30T03:50:11.155Z,96627.97
2023-07-30T03:52:37.875Z,96626.44
2023-07-30T03:55:05.419Z,96627.53
2023-07-30T03:57:33.408Z,96627.97
2023-07-30T04:00:00.950Z,96635.28
2023-07-30T04:02:27.949Z,96636.78
2023-07-30T04:04:54.620Z,96629.81
2023-07-30T04:07:21.282Z,96631.75
2023-07-30T04:09:47.907Z,96635.97
2023-07-30T04:12:14.570Z,96644.44
2023-07-30T04:14:41.248Z,96637.13
2023-07-30T04:17:07.851Z,96635.63
2023-07-30T04:19:34.575Z,96645.19
2023-07-30T04:22:01.320Z,96651.34
2023-07-30T04:24:27.938Z,96650.94
2023-07-30T04:26:54.621Z,96648.25
2023-07-30T04:29:21.468Z,96652.81
2023-07-30T04:31:48.644Z,96653.94
2023-07-30T04:34:16.600Z,96652.34
2023-07-30T04:36:43.344Z,96658.88
2023-07-30T04:39:10.057Z,96661.91
2023-07-30T04:41:37.620Z,96659.22
2023-07-30T04:44:05.193Z,96663.78
2023-07-30T04:46:32.264Z,96669.53
2023-07-30T04:48:59.108Z,96670.63
2023-07-30T04:51:25.794Z,96664.84
2023-07-30T04:53:52.384Z,96670.19
2023-07-30T04:56:19.048Z,96669.78
2023-07-30T04:58:45.737Z,96675.50
2023-07-30T05:01:12.452Z,96680.13
2023-07-30T05:03:39.160Z,96682.81
2023-07-30T05:06:06.198Z,96683.56
2023-07-30T05:08:32.890Z,96679.72
2023-07-30T05:10:59.807Z,96675.84
2023-07-30T05:13:26.535Z,96672.00
2023-07-30T05:15:53.371Z,96671.25
2023-07-30T05:18:20.112Z,96678.53
2023-07-30T05:20:47.583Z,96668.56
2023-07-30T05:23:14.438Z,96682.00
2023-07-30T05:25:41.244Z,96686.22
2023-07-30T05:28:08.146Z,96684.72
2023-07-30T05:30:34.860Z,96688.53
2023-07-30T05:33:01.559Z,96682.00
2023-07-30T05:35:29.718Z,96693.53
2023-07-30T05:37:58.197Z,96692.78
2023-07-30T05:40:27.257Z,96684.34
2023-07-30T05:42:53.921Z,96685.09
2023-07-30T05:45:20.854Z,96680.13
2023-07-30T05:47:47.643Z,96677.84
2023-07-30T05:50:14.430Z,96683.97
2023-07-30T05:52:41.087Z,96678.19
2023-07-30T05:55:08.808Z,96688.16
2023-07-30T05:57:35.495Z,96699.22
2023-07-30T06:00:02.467Z,96704.94
2023-07-30T06:02:29.144Z,96700.66
2023-07-30T06:04:55.965Z,96700.59
2023-07-30T06:07:22.916Z,96703.22
2023-07-30T06:09:49.978Z,96709.34
2023-07-30T06:12:16.678Z,96714.66
2023-07-30T06:14:43.553Z,96715.72
2023-07-30T06:17:10.586Z,96718.72
2023-07-30T06:19:37.538Z,96713.66
2023-07-30T06:22:04.516Z,96716.31
2023-07-30T06:24:32.891Z,96714.72
2023-07-30T06:27:01.513Z,96723.91
2023-07-30T06:29:28.115Z,96722.69
2023-07-30T06:31:54.814Z,96726.09
2023-07-30T06:34:21.631Z,96718.72
2023-07-30T06:36:48.244Z,96729.41
2023-07-30T06:39:14.902Z,96734.75
2023-07-30T06:41:41.725Z,96746.59
2023-07-30T06:44:08.518Z,96752.66
2023-07-30T06:46:35.172Z,96749.56
2023-07-30T06:49:01.965Z,96746.81
2023-07-30T06:51:28.796Z,96749.09
2023-07-30T06:53:55.606Z,96747.19
2023-07-30T06:56:22.341Z,96745.25
2023-07-30T06:58:49.047Z,96750.97
2023-07-30T07:01:15.843Z,96759.44
2023-07-30T07:03:42.572Z,96749.75
2023-07-30T07:06:09.237Z,96758.56
2023-07-30T07:08:36.042Z,96760.00
2023-07-30T07:11:02.721Z,96757.66
2023-07-30T07:13:29.442Z,96766.09
2023-07-30T07:15:56.085Z,96756.50
2023-07-30T07:18:23.280Z,96761.81
2023-07-30T07:20:49.961Z,96761.34
2023-07-30T07:23:16.736Z,96763.22
2023-07-30T07:25:45.154Z,96753.59
2023-07-30T07:28:11.852Z,96752.84
2023-07-30T07:30:38.762Z,96762.09
2023-07-30T07:33:13.750Z,96760.50
2023-07-30T07:35:41.216Z,96761.97
2023-07-30T07:38:08.040Z,96761.91
2023-07-30T07:40:41.196Z,96759.53
2023-07-30T07:43:08.946Z,96771.94
2023-07-30T07:45:35.736Z,96778.16
2023-07-30T07:48:02.487Z,96774.31
2023-07-30T07:50:29.356Z,96763.63
2023-07-30T07:52:56.095Z,96775.59
2023-07-30T07:55:22.880Z,96773.66
2023-07-30T07:57:49.687Z,96771.72
2023-07-30T08:00:16.437Z,96769.78
2023-07-30T08:02:43.324Z,96769.78
2023-07-30T08:05:10.332Z,96766.31
2023-07-30T08:07:37.071Z,96770.53
2023-07-30T08:10:04.199Z,96770.19
2023-07-30T08:12:35.325Z,96759.34
2023-07-30T08:15:02.081Z,96751.13
2023-07-30T08:17:29.221Z,96759.50
2023-07-30T08:19:56.228Z,96767.50
2023-07-30T08:22:22.990Z,96765.50
2023-07-30T08:24:49.950Z,96775.13
2023-07-30T08:27:16.825Z,96775.53
2023-07-30T08:29:43.579Z,96775.16
2023-07-30T08:32:10.316Z,96762.19
2023-07-30T08:34:36.988Z,96768.88
2023-07-30T08:37:03.892Z,96779.38
2023-07-30T08:39:30.574Z,96779.97
2023-07-30T08:41:57.303Z,96772.78
2023-07-30T08:44:24.014Z,96782.09
2023-07-30T08:46:52.494Z,96775.94
2023-07-30T08:49:21.346Z,96779.75
2023-07-30T08:51:53.963Z,96784.34
2023-07-30T08:54:22.024Z,96781.28
2023-07-30T08:56:49.813Z,96785.50
2023-07-30T08:59:17.582Z,96788.59
2023-07-30T09:01:46.548Z,96794.81
2023-07-30T09:04:18.112Z,96794.81
2023-07-30T09:06:45.307Z,96799.44
2023-07-30T09:09:13.056Z,96792.13
2023-07-30T09:11:40.144Z,96788.59
2023-07-30T09:14:08.195Z,96783.78
2023-07-30T09:16:34.880Z,96788.19
2023-07-30T09:19:01.611Z,96791.00
2023-07-30T09:21:35.813Z,96784.50
2023-07-30T09:24:07.502Z,96787.50
2023-07-30T09:26:44.493Z,96798.16
2023-07-30T09:29:12.061Z,96794.28
2023-07-30T09:31:49.757Z,96795.16
2023-07-30T09:34:19.140Z,96804.09
2023-07-30T09:36:48.295Z,96799.19
2023-07-30T09:39:22.172Z,96813.91
2023-07-30T09:41:52.366Z,96812.13
2023-07-30T09:44:21.660Z,96806.00
2023-07-30T09:46:50.753Z,96818.72
2023-07-30T09:49:19.525Z,96815.84
2023-07-30T09:51:46.424Z,96824.16
2023-07-30T09:54:14.505Z,96817.06
2023-07-30T09:56:42.524Z,96810.69
2023-07-30T09:59:10.257Z,96822.63
2023-07-30T10:01:42.627Z,96820.72
2023-07-30T10:04:10.991Z,96813.72
2023-07-30T10:06:45.272Z,96813.44
2023-07-30T10:09:14.358Z,96829.50
2023-07-30T10:11:43.734Z,96822.91
2023-07-30T10:14:10.783Z,96822.41
2023-07-30T10:16:38.119Z,96823.16
2023-07-30T10:19:04.983Z,96824.78
2023-07-30T10:21:34.089Z,96826.63
2023-07-30T10:24:05.175Z,96824.81
2023-07-30T10:26:34.808Z,96824.91
2023-07-30T10:29:21.600Z,96831.16
2023-07-30T10:31:51.406Z,96817.56
2023-07-30T10:34:18.456Z,96803.53
2023-07-30T10:36:52.418Z,96818.75
2023-07-30T10:39:27.752Z,96825.34
2023-07-30T10:41:56.344Z,96814.03
2023-07-30T10:44:27.619Z,96820.53
2023-07-30T10:46:55.652Z,96810.13
2023-07-30T10:49:22.849Z,96808.63
2023-07-30T10:51:53.975Z,96811.75
2023-07-30T10:54:21.097Z,96813.72
2023-07-30T10:56:48.009Z,96811.88
2023-07-30T10:59:16.278Z,96810.75
2023-07-30T11:01:45.351Z,96807.75
2023-07-30T11:04:15.363Z,96817.16
2023-07-30T11:06:50.600Z,96817.25
2023-07-30T11:09:21.184Z,96810.19
2023-07-30T11:11:48.959Z,96815.03
2023-07-30T11:14:22.985Z,96807.00
2023-07-30T11:16:52.414Z,96809.97
2023-07-30T11:19:19.832Z,96812.03
2023-07-30T11:21:54.185Z,96822.31
2023-07-30T11:24:22.327Z,96816.47
2023-07-30T11:26:59.723Z,96824.19
2023-07-30T11:29:28.050Z,96815.16
2023-07-30T11:31:59.069Z,96816.22
2023-07-30T11:34:27.219Z,96825.00
2023-07-30T11:36:55.588Z,96819.13
2023-07-30T11:39:27.911Z,96818.88
2023-07-30T11:41:54.610Z,96816.34
2023-07-30T11:44:35.522Z,96810.53
2023-07-30T11:47:02.357Z,96816.19
2023-07-30T11:49:29.076Z,96817.00
2023-07-30T11:52:14.633Z,96812.75
2023-07-30T11:54:41.488Z,96813.41
2023-07-30T11:57:08.369Z,96815.03
2023-07-30T11:59:35.212Z,96819.63
2023-07-30T12:02:02.691Z,96809.34
2023-07-30T12:04:44.591Z,96813.91
2023-07-30T12:07:11.614Z,96798.50
2023-07-30T12:09:39.498Z,96816.63
2023-07-30T12:12:07.484Z,96812.53
2023-07-30T12:14:45.653Z,96824.16
2023-07-30T12:17:12.437Z,96820.38
2023-07-30T12:19:39.678Z,96807.72
2023-07-30T12:22:06.629Z,96806.44
2023-07-30T12:24:33.468Z,96813.72
2023-07-30T12:27:00.220Z,96806.31
2023-07-30T12:29:27.511Z,96804.34
2023-07-30T12:31:54.968Z,96797.88
2023-07-30T12:34:21.730Z,96800.94
2023-07-30T12:36:48.440Z,96812.09
2023-07-30T12:39:15.205Z,96798.63
2023-07-30T12:41:42.222Z,96797.06
2023-07-30T12:44:10.776Z,96799.34
2023-07-30T12:46:38.210Z,96797.69
2023-07-30T12:49:05.883Z,96798.91
2023-07-30T12:51:33.897Z,96784.88
2023-07-30T12:54:00.744Z,96791.88
2023-07-30T12:56:27.602Z,96794.44
2023-07-30T12:58:55.930Z,96790.31
2023-07-30T13:01:25.004Z,96779.88
2023-07-30T13:03:52.943Z,96788.94
2023-07-30T13:06:19.655Z,96785.31
2023-07-30T13:08:46.516Z,96782.72
2023-07-30T13:11:13.576Z,96777.13
2023-07-30T13:13:40.655Z,96780.00
2023-07-30T13:16:07.330Z,96768.66
2023-07-30T13:18:34.363Z,96792.84
2023-07-30T13:21:01.076Z,96782.06
2023-07-30T13:23:27.850Z,96788.28
2023-07-30T13:25:55.023Z,96802.31
2023-07-30T13:28:21.821Z,96785.53
2023-07-30T13:30:49.023Z,96793.41
2023-07-30T13:33:15.936Z,96787.88
2023-07-30T13:35:43.022Z,96796.66
2023-07-30T13:38:10.223Z,96791.53
2023-07-30T13:40:37.090Z,96790.31
2023-07-30T13:43:03.935Z,96780.94
2023-07-30T13:45:31.115Z,96795.75
2023-07-30T13:47:57.906Z,96801.81
2023-07-30T13:50:24.837Z,96812.09
2023-07-30T13:52:51.995Z,96795.44
2023-07-30T13:55:18.847Z,96793.81
2023-07-30T13:57:45.644Z,96806.19
2023-07-30T14:00:14.142Z,96809.22
2023-07-30T14:02:41.324Z,96806.03
2023-07-30T14:05:09.188Z,96803.63
2023-07-30T14:07:36.384Z,96799.22
2023-07-30T14:10:03.715Z,96804.50
2023-07-30T14:12:30.584Z,96797.38
2023-07-30T14:14:57.551Z,96801.00
2023-07-30T14:17:24.759Z,96794.91
2023-07-30T14:19:52.281Z,96804.66
2023-07-30T14:22:19.456Z,96807.22
2023-07-30T14:24:46.291Z,96815.66
2023-07-30T14:27:13.342Z,96812.94
2023-07-30T14:29:40.526Z,96813.88
2023-07-30T14:32:07.942Z,96818.56
2023-07-30T14:34:35.456Z,96817.19
2023-07-30T14:37:02.179Z,96825.50
2023-07-30T14:39:28.861Z,96834.44
2023-07-30T14:41:55.786Z,96833.53
2023-07-30T14:44:23.240Z,96825.38
2023-07-30T14:46:50.280Z,96836.09
2023-07-30T14:49:17.785Z,96828.50
2023-07-30T14:51:44.626Z,96822.88
2023-07-30T14:54:12.123Z,96828.66
2023-07-30T14:56:39.488Z,96828.00
2023-07-30T14:59:06.693Z,96826.50
2023-07-30T15:01:34.641Z,96817.75
2023-07-30T15:04:01.942Z,96821.22
2023-07-30T15:06:32.689Z,96833.72
2023-07-30T15:09:01.214Z,96828.56
2023-07-30T15:11:28.638Z,96824.31
2023-07-30T15:13:55.573Z,96832.16
2023-07-30T15:16:22.283Z,96826.72
2023-07-30T15:18:49.235Z,96827.34
2023-07-30T15:21:16.255Z,96830.81
2023-07-30T15:23:47.138Z,96830.97
2023-07-30T15:26:14.139Z,96829.44
2023-07-30T15:28:41.936Z,96842.13
2023-07-30T15:31:09.095Z,96840.03
2023-07-30T15:33:36.873Z,96836.97
2023-07-30T15:36:04.228Z,96834.84
2023-07-30T15:38:31.377Z,96827.31
2023-07-30T15:41:00.003Z,96837.88
2023-07-30T15:43:27.564Z,96830.94
2023-07-30T15:46:02.692Z,96830.00
2023-07-30T15:48:30.706Z,96821.47
2023-07-30T15:50:57.741Z,96826.34
2023-07-30T15:53:24.754Z,96825.78
2023-07-30T15:55:52.010Z,96835.88
2023-07-30T15:58:18.893Z,96830.72
2023-07-30T16:00:45.692Z,96828.63
2023-07-30T16:03:13.462Z,96826.19
2023-07-30T16:05:48.671Z,96828.13
2023-07-30T16:08:16.573Z,96822.38
2023-07-30T16:10:43.601Z,96831.28
2023-07-30T16:13:10.606Z,96831.28
2023-07-30T16:15:37.900Z,96828.28
2023-07-30T16:18:05.114Z,96829.78
2023-07-30T16:20:31.806Z,96839.63
2023-07-30T16:22:58.788Z,96830.09
2023-07-30T16:25:25.520Z,96837.56
2023-07-30T16:27:52.981Z,96843.41
2023-07-30T16:30:20.132Z,96832.25
2023-07-30T16:32:46.854Z,96832.91
2023-07-30T16:35:13.911Z,96835.47
2023-07-30T16:37:40.786Z,96835.91
2023-07-30T16:40:08.551Z,96837.44
2023-07-30T16:42:35.219Z,96837.44
2023-07-30T16:45:03.863Z,96832.44
2023-07-30T16:47:30.995Z,96843.50
2023-07-30T16:49:58.283Z,96836.97
2023-07-30T16:52:25.602Z,96830.19
2023-07-30T16:54:53.269Z,96840.09
2023-07-30T16:57:20.118Z,96831.63
2023-07-30T16:59:47.180Z,96832.41
2023-07-30T17:02:14.586Z,96843.06
2023-07-30T17:04:41.411Z,96831.75
2023-07-30T17:07:08.210Z,96835.88
2023-07-30T17:09:34.996Z,96830.88
2023-07-30T17:12:01.772Z,96829.03
2023-07-30T17:14:31.096Z,96830.44
2023-07-30T17:16:58.031Z,96838.13
2023-07-30T17:19:26.562Z,96836.63
2023-07-30T17:21:53.260Z,96842.91
2023-07-30T17:24:20.462Z,96840.53
2023-07-30T17:26:47.271Z,96854.69
2023-07-30T17:29:14.361Z,96851.00
2023-07-30T17:31:41.282Z,96857.13
2023-07-30T17:34:07.980Z,96852.84
2023-07-30T17:36:35.905Z,96853.69
2023-07-30T17:39:02.914Z,96857.63
2023-07-30T17:41:30.333Z,96864.44
2023-07-30T17:43:57.158Z,96854.66
2023-07-30T17:46:24.169Z,96870.63
2023-07-30T17:48:52.074Z,96874.66
2023-07-30T17:51:19.324Z,96866.31
2023-07-30T17:53:46.716Z,96869.44
2023-07-30T17:56:13.617Z,96864.16
2023-07-30T17:58:40.439Z,96872.28
2023-07-30T18:01:07.984Z,96878.16
2023-07-30T18:03:36.702Z,96873.72
2023-07-30T18:06:04.485Z,96873.50
2023-07-30T18:08:31.489Z,96880.13
2023-07-30T18:10:58.384Z,96876.00
2023-07-30T18:13:25.817Z,96881.88
2023-07-30T18:15:52.930Z,96876.91
2023-07-30T18:18:21.325Z,96886.56
2023-07-30T18:20:48.440Z,96892.88
2023-07-30T18:23:15.451Z,96891.75
2023-07-30T18:25:43.015Z,96891.88
2023-07-30T18:28:10.005Z,96902.44
2023-07-30T18:30:37.971Z,96889.09
2023-07-30T18:33:08.338Z,96895.50
2023-07-30T18:35:37.726Z,96899.72
2023-07-30T18:38:05.426Z,96898.19
2023-07-30T18:40:36.882Z,96898.09
2023-07-30T18:43:05.444Z,96898.63
2023-07-30T18:45:36.296Z,96896.69
2023-07-30T18:48:04.090Z,96900.16
2023-07-30T18:50:32.333Z,96897.13
2023-07-30T18:53:01.350Z,96901.78
2023-07-30T18:55:28.083Z,96905.00
2023-07-30T18:57:55.036Z,96910.97
2023-07-30T19:00:21.948Z,96903.06
2023-07-30T19:02:48.775Z,96900.00
2023-07-30T19:05:15.908Z,96894.25
2023-07-30T19:07:42.596Z,96905.97
2023-07-30T19:10:09.577Z,96909.09
2023-07-30T19:12:36.312Z,96914.97
2023-07-30T19:15:03.759Z,96912.03
2023-07-30T19:17:30.603Z,96909.34
2023-07-30T19:19:57.339Z,96913.31
2023-07-30T19:22:24.427Z,96918.44
2023-07-30T19:24:51.336Z,96916.13
2023-07-30T19:27:18.256Z,96926.22
2023-07-30T19:29:45.057Z,96928.16
2023-07-30T19:32:12.073Z,96928.91
2023-07-30T19:34:38.752Z,96935.53
2023-07-30T19:37:05.662Z,96935.09
2023-07-30T19:39:32.484Z,96934.34
2023-07-30T19:41:59.189Z,96938.66
2023-07-30T19:44:26.053Z,96950.38
2023-07-30T19:46:53.008Z,96944.72
2023-07-30T19:49:20.705Z,96944.81
2023-07-30T19:51:47.657Z,96945.78
2023-07-30T19:54:14.414Z,96949.34
2023-07-30T19:56:41.446Z,96950.28
2023-07-30T19:59:08.508Z,96946.56
2023-07-30T20:01:35.459Z,96952.50
2023-07-30T20:04:02.318Z,96956.81
2023-07-30T20:06:29.270Z,96953.88
2023-07-30T20:08:55.947Z,96952.34
2023-07-30T20:11:25.490Z,96955.50
2023-07-30T20:13:52.502Z,96949.06
2023-07-30T20:16:19.261Z,96941.88
2023-07-30T20:18:46.305Z,96948.13
2023-07-30T20:21:13.047Z,96950.63
2023-07-30T20:23:39.809Z,96950.69
2023-07-30T20:26:17.310Z,96951.53
2023-07-30T20:28:45.655Z,96956.97
2023-07-30T20:31:12.824Z,96953.94
2023-07-30T20:33:40.841Z,96964.41
2023-07-30T20:36:07.593Z,96957.13
2023-07-30T20:38:34.378Z,96955.94
2023-07-30T20:41:01.312Z,96957.63
2023-07-30T20:43:28.408Z,96955.47
2023-07-30T20:45:55.428Z,96967.53
2023-07-30T20:48:22.560Z,96964.94
2023-07-30T20:50:49.634Z,96960.66
2023-07-30T20:53:16.886Z,96956.38
2023-07-30T20:55:43.812Z,96972.19
2023-07-30T20:58:10.740Z,96965.91
2023-07-30T21:00:37.905Z,96959.00
2023-07-30T21:03:04.776Z,96952.38
2023-07-30T21:05:31.521Z,96953.59
2023-07-30T21:07:58.163Z,96957.47
2023-07-30T21:10:25.079Z,96957.47
2023-07-30T21:12:51.951Z,96950.88
2023-07-30T21:15:18.721Z,96948.25
2023-07-30T21:17:45.823Z,96958.31
2023-07-30T21:20:13.041Z,96962.59
2023-07-30T21:22:40.041Z,96959.97
2023-07-30T21:25:07.716Z,96960.81
2023-07-30T21:27:34.716Z,96962.34
2023-07-30T21:30:02.106Z,96961.66
2023-07-30T21:32:29.559Z,96963.00
2023-07-30T21:34:56.428Z,96965.53
2023-07-30T21:37:24.079Z,96964.50
2023-07-30T21:39:51.020Z,96958.06
2023-07-30T21:42:17.965Z,96959.00
2023-07-30T21:44:44.766Z,96958.75
2023-07-30T21:47:11.701Z,96959.22
2023-07-30T21:49:38.675Z,96954.31
2023-07-30T21:52:33.452Z,96957.84
2023-07-30T21:55:00.643Z,96967.81
2023-07-30T21:57:27.579Z,96970.19
2023-07-30T21:59:54.599Z,96964.34
2023-07-30T22:02:23.464Z,96964.44
2023-07-30T22:04:50.527Z,96975.81
2023-07-30T22:07:17.485Z,96974.75
2023-07-30T22:09:44.566Z,96976.59
2023-07-30T22:12:11.723Z,96973.47
2023-07-30T22:14:39.239Z,96977.75
2023-07-30T22:17:06.771Z,96979.72
2023-07-30T22:19:34.125Z,96975.84
2023-07-30T22:22:00.965Z,96981.34
2023-07-30T22:24:28.240Z,96972.88
2023-07-30T22:26:55.224Z,96981.06
2023-07-30T22:29:22.172Z,96985.63
2023-07-30T22:31:48.960Z,96982.78
2023-07-30T22:34:15.643Z,96986.53
2023-07-30T22:36:42.769Z,96994.59
2023-07-30T22:39:09.654Z,96991.88
2023-07-30T22:41:36.343Z,96995.25
2023-07-30T22:44:03.082Z,96986.41
2023-07-30T22:46:29.885Z,96992.16
2023-07-30T22:48:56.765Z,96995.59
2023-07-30T22:51:23.488Z,96992.50
2023-07-30T22:53:50.274Z,96999.91
2023-07-30T22:56:17.124Z,96989.53
2023-07-30T22:58:43.812Z,96991.03
2023-07-30T23:01:10.570Z,96986.81
2023-07-30T23:03:37.699Z,96992.22
2023-07-30T23:06:04.409Z,96984.19
2023-07-30T23:08:31.452Z,96982.31
2023-07-30T23:10:58.309Z,96992.78
2023-07-30T23:13:25.177Z,96986.22
2023-07-30T23:15:52.193Z,96978.56
2023-07-30T23:18:18.937Z,96966.69
2023-07-30T23:20:45.720Z,96970.25
2023-07-30T23:23:12.393Z,96970.94
2023-07-30T23:25:39.249Z,96976.34
2023-07-30T23:28:05.981Z,96960.97
2023-07-30T23:30:33.412Z,96968.72
2023-07-30T23:33:00.132Z,96962.28
2023-07-30T23:35:28.823Z,96960.06
2023-07-30T23:37:55.479Z,96953.13
2023-07-30T23:40:24.130Z,96964.31
2023-07-30T23:42:51.073Z,96955.78
2023-07-30T23:45:18.984Z,96957.34
2023-07-30T23:47:46.054Z,96955.06
2023-07-30T23:50:12.757Z,96951.69
2023-07-30T23:52:39.401Z,96958.00
2023-07-30T23:55:07.236Z,96959.44
2023-07-30T23:57:34.233Z,96945.78
